Hartland Four Corners, Vermont
Current Conditions -  °F | °C
As of 6:05 AM on Sunday 23 Nov 2014 (Local Time) from KLEB Reporting Station
Overcast Overcast  
Wind Chill: 40°   Ceiling: 2700
Heat Index: 40°   Visibility: 10mi
Dew Point: 34°   Wind: 0mph
Humidity: 79%   Direction: NA
Pressure: 30.02"   Gusts: NA
Location:  43.55°N, 72.42°W
Report Text: KLEB 231105Z 00000KT 10SM BKN027 BKN070 OVC095 04/01 A3002 RMK AO2 T00440011
Loading
Personal Weather Stations






























Interactive Weather Map New forecast layout! Learn more

10-Day Weather Forecast

Advertisements
Track Severe Weather on mobile